sensor_id;sensor_type;location;lat;lon;timestamp;P1;durP1;ratioP1;P2;durP2;ratioP2
9986;SDS011;5033;46.310;11.214;2024-03-02T00:00:15;6.97;;;5.18;;
9986;SDS011;5033;46.310;11.214;2024-03-02T00:02:45;5.60;;;5.13;;
9986;SDS011;5033;46.310;11.214;2024-03-02T00:05:14;7.63;;;6.80;;
9986;SDS011;5033;46.310;11.214;2024-03-02T00:07:42;10.90;;;8.80;;
9986;SDS011;5033;46.310;11.214;2024-03-02T00:10:11;12.57;;;7.82;;
9986;SDS011;5033;46.310;11.214;2024-03-02T00:12:47;9.63;;;7.82;;
9986;SDS011;5033;46.310;11.214;2024-03-02T00:18:07;7.90;;;6.70;;
9986;SDS011;5033;46.310;11.214;2024-03-02T00:20:36;7.95;;;6.20;;
9986;SDS011;5033;46.310;11.214;2024-03-02T00:23:04;6.90;;;6.15;;
9986;SDS011;5033;46.310;11.214;2024-03-02T00:25:36;6.30;;;5.70;;
9986;SDS011;5033;46.310;11.214;2024-03-02T00:28:10;5.93;;;5.40;;
9986;SDS011;5033;46.310;11.214;2024-03-02T00:30:45;5.15;;;4.68;;
9986;SDS011;5033;46.310;11.214;2024-03-02T00:33:19;5.85;;;4.85;;
9986;SDS011;5033;46.310;11.214;2024-03-02T00:35:47;4.95;;;4.55;;
9986;SDS011;5033;46.310;11.214;2024-03-02T00:38:15;4.50;;;4.20;;
9986;SDS011;5033;46.310;11.214;2024-03-02T00:40:43;3.80;;;3.50;;
9986;SDS011;5033;46.310;11.214;2024-03-02T00:43:18;4.22;;;3.63;;
9986;SDS011;5033;46.310;11.214;2024-03-02T00:46:05;3.67;;;3.30;;
9986;SDS011;5033;46.310;11.214;2024-03-02T00:48:32;3.47;;;3.15;;
9986;SDS011;5033;46.310;11.214;2024-03-02T00:51:01;4.10;;;3.80;;
9986;SDS011;5033;46.310;11.214;2024-03-02T00:53:29;4.03;;;3.63;;
9986;SDS011;5033;46.310;11.214;2024-03-02T00:55:57;3.72;;;3.50;;
9986;SDS011;5033;46.310;11.214;2024-03-02T00:58:26;4.00;;;3.70;;
9986;SDS011;5033;46.310;11.214;2024-03-02T01:00:53;4.18;;;3.78;;
9986;SDS011;5033;46.310;11.214;2024-03-02T01:03:20;4.28;;;3.88;;
9986;SDS011;5033;46.310;11.214;2024-03-02T01:05:47;4.82;;;4.43;;
9986;SDS011;5033;46.310;11.214;2024-03-02T01:08:14;4.80;;;4.40;;
9986;SDS011;5033;46.310;11.214;2024-03-02T01:10:41;5.78;;;5.28;;
9986;SDS011;5033;46.310;11.214;2024-03-02T01:13:08;6.35;;;5.57;;
9986;SDS011;5033;46.310;11.214;2024-03-02T01:15:37;5.78;;;5.28;;
9986;SDS011;5033;46.310;11.214;2024-03-02T01:18:04;5.50;;;5.00;;
9986;SDS011;5033;46.310;11.214;2024-03-02T01:20:31;6.00;;;5.50;;
9986;SDS011;5033;46.310;11.214;2024-03-02T01:22:58;6.22;;;5.72;;
9986;SDS011;5033;46.310;11.214;2024-03-02T01:25:25;6.80;;;5.22;;
9986;SDS011;5033;46.310;11.214;2024-03-02T01:27:52;5.43;;;4.95;;
9986;SDS011;5033;46.310;11.214;2024-03-02T01:30:19;5.53;;;4.93;;
9986;SDS011;5033;46.310;11.214;2024-03-02T01:32:48;4.35;;;4.00;;
9986;SDS011;5033;46.310;11.214;2024-03-02T01:35:15;5.35;;;4.32;;
9986;SDS011;5033;46.310;11.214;2024-03-02T01:37:42;4.38;;;3.97;;
9986;SDS011;5033;46.310;11.214;2024-03-02T01:40:09;4.53;;;4.13;;
9986;SDS011;5033;46.310;11.214;2024-03-02T01:42:37;3.88;;;3.53;;
9986;SDS011;5033;46.310;11.214;2024-03-02T01:45:04;3.58;;;3.28;;
9986;SDS011;5033;46.310;11.214;2024-03-02T01:47:32;4.55;;;4.15;;
9986;SDS011;5033;46.310;11.214;2024-03-02T01:50:01;4.78;;;4.38;;
9986;SDS011;5033;46.310;11.214;2024-03-02T01:52:28;5.13;;;4.72;;
9986;SDS011;5033;46.310;11.214;2024-03-02T01:54:55;4.97;;;4.53;;
9986;SDS011;5033;46.310;11.214;2024-03-02T01:57:22;4.78;;;4.47;;
9986;SDS011;5033;46.310;11.214;2024-03-02T01:59:49;4.60;;;4.30;;
9986;SDS011;5033;46.310;11.214;2024-03-02T02:02:16;4.72;;;4.32;;
9986;SDS011;5033;46.310;11.214;2024-03-02T02:04:43;4.93;;;4.53;;
9986;SDS011;5033;46.310;11.214;2024-03-02T02:07:12;5.43;;;5.00;;
9986;SDS011;5033;46.310;11.214;2024-03-02T02:09:39;5.05;;;4.65;;
9986;SDS011;5033;46.310;11.214;2024-03-02T02:12:07;5.60;;;5.10;;
9986;SDS011;5033;46.310;11.214;2024-03-02T02:14:34;4.50;;;4.20;;
9986;SDS011;5033;46.310;11.214;2024-03-02T02:17:01;4.82;;;4.43;;
9986;SDS011;5033;46.310;11.214;2024-03-02T02:19:28;5.78;;;4.90;;
9986;SDS011;5033;46.310;11.214;2024-03-02T02:21:57;5.70;;;5.20;;
9986;SDS011;5033;46.310;11.214;2024-03-02T02:24:24;4.97;;;4.57;;
9986;SDS011;5033;46.310;11.214;2024-03-02T02:26:50;4.30;;;4.00;;
9986;SDS011;5033;46.310;11.214;2024-03-02T02:29:17;5.20;;;4.70;;
9986;SDS011;5033;46.310;11.214;2024-03-02T02:31:44;3.60;;;3.40;;
9986;SDS011;5033;46.310;11.214;2024-03-02T02:34:11;4.15;;;3.63;;
9986;SDS011;5033;46.310;11.214;2024-03-02T02:36:40;4.60;;;4.18;;
9986;SDS011;5033;46.310;11.214;2024-03-02T02:39:10;6.18;;;5.20;;
9986;SDS011;5033;46.310;11.214;2024-03-02T02:41:39;6.63;;;5.97;;
9986;SDS011;5033;46.310;11.214;2024-03-02T02:44:06;5.85;;;5.35;;
9986;SDS011;5033;46.310;11.214;2024-03-02T02:46:33;6.53;;;5.85;;
9986;SDS011;5033;46.310;11.214;2024-03-02T02:49:00;6.18;;;5.63;;
9986;SDS011;5033;46.310;11.214;2024-03-02T02:51:27;5.53;;;5.07;;
9986;SDS011;5033;46.310;11.214;2024-03-02T02:53:54;5.10;;;4.70;;
9986;SDS011;5033;46.310;11.214;2024-03-02T02:56:22;3.92;;;3.63;;
9986;SDS011;5033;46.310;11.214;2024-03-02T02:58:49;3.40;;;3.20;;
9986;SDS011;5033;46.310;11.214;2024-03-02T03:01:16;3.30;;;3.10;;
9986;SDS011;5033;46.310;11.214;2024-03-02T03:03:43;3.17;;;2.97;;
9986;SDS011;5033;46.310;11.214;2024-03-02T03:06:10;2.83;;;2.63;;
9986;SDS011;5033;46.310;11.214;2024-03-02T03:08:37;2.83;;;2.63;;
9986;SDS011;5033;46.310;11.214;2024-03-02T03:11:05;4.00;;;3.20;;
9986;SDS011;5033;46.310;11.214;2024-03-02T03:13:33;3.13;;;2.92;;
9986;SDS011;5033;46.310;11.214;2024-03-02T03:16:00;3.83;;;3.33;;
9986;SDS011;5033;46.310;11.214;2024-03-02T03:18:28;3.22;;;3.03;;
9986;SDS011;5033;46.310;11.214;2024-03-02T03:20:55;3.67;;;3.38;;
9986;SDS011;5033;46.310;11.214;2024-03-02T03:23:22;3.63;;;3.40;;
9986;SDS011;5033;46.310;11.214;2024-03-02T03:25:48;3.70;;;3.40;;
9986;SDS011;5033;46.310;11.214;2024-03-02T03:28:15;3.63;;;3.33;;
9986;SDS011;5033;46.310;11.214;2024-03-02T03:30:45;3.17;;;2.97;;
9986;SDS011;5033;46.310;11.214;2024-03-02T03:33:12;3.28;;;3.08;;
9986;SDS011;5033;46.310;11.214;2024-03-02T03:35:39;2.50;;;2.33;;
9986;SDS011;5033;46.310;11.214;2024-03-02T03:38:06;3.15;;;2.92;;
9986;SDS011;5033;46.310;11.214;2024-03-02T03:40:33;2.55;;;2.45;;
9986;SDS011;5033;46.310;11.214;2024-03-02T03:42:59;3.08;;;2.78;;
9986;SDS011;5033;46.310;11.214;2024-03-02T03:45:26;3.00;;;2.80;;
9986;SDS011;5033;46.310;11.214;2024-03-02T03:47:55;3.17;;;2.90;;
9986;SDS011;5033;46.310;11.214;2024-03-02T03:50:21;3.20;;;3.00;;
9986;SDS011;5033;46.310;11.214;2024-03-02T03:52:48;3.45;;;3.10;;
9986;SDS011;5033;46.310;11.214;2024-03-02T03:55:15;3.58;;;3.28;;
9986;SDS011;5033;46.310;11.214;2024-03-02T03:57:42;3.42;;;3.15;;
9986;SDS011;5033;46.310;11.214;2024-03-02T04:00:09;4.47;;;3.00;;
9986;SDS011;5033;46.310;11.214;2024-03-02T04:02:37;3.28;;;3.08;;
9986;SDS011;5033;46.310;11.214;2024-03-02T04:05:06;3.25;;;3.05;;
9986;SDS011;5033;46.310;11.214;2024-03-02T04:07:35;3.50;;;3.20;;
9986;SDS011;5033;46.310;11.214;2024-03-02T04:10:08;3.22;;;3.03;;
9986;SDS011;5033;46.310;11.214;2024-03-02T04:12:37;3.67;;;3.38;;
9986;SDS011;5033;46.310;11.214;2024-03-02T04:15:04;3.90;;;3.53;;
9986;SDS011;5033;46.310;11.214;2024-03-02T04:17:32;4.40;;;4.00;;
9986;SDS011;5033;46.310;11.214;2024-03-02T04:20:00;9.23;;;3.88;;
9986;SDS011;5033;46.310;11.214;2024-03-02T04:22:32;4.03;;;3.67;;
9986;SDS011;5033;46.310;11.214;2024-03-02T04:25:00;4.32;;;4.00;;
9986;SDS011;5033;46.310;11.214;2024-03-02T04:27:29;3.47;;;3.17;;
9986;SDS011;5033;46.310;11.214;2024-03-02T04:29:57;3.63;;;3.33;;
9986;SDS011;5033;46.310;11.214;2024-03-02T04:32:25;3.50;;;3.30;;
9986;SDS011;5033;46.310;11.214;2024-03-02T04:34:52;3.60;;;3.30;;
9986;SDS011;5033;46.310;11.214;2024-03-02T04:37:19;4.22;;;3.42;;
9986;SDS011;5033;46.310;11.214;2024-03-02T04:39:47;3.17;;;2.97;;
9986;SDS011;5033;46.310;11.214;2024-03-02T04:42:14;2.88;;;2.67;;
9986;SDS011;5033;46.310;11.214;2024-03-02T04:44:41;2.78;;;2.65;;
9986;SDS011;5033;46.310;11.214;2024-03-02T04:47:08;2.95;;;2.75;;
9986;SDS011;5033;46.310;11.214;2024-03-02T04:49:35;2.95;;;2.75;;
9986;SDS011;5033;46.310;11.214;2024-03-02T04:52:02;4.38;;;3.97;;
9986;SDS011;5033;46.310;11.214;2024-03-02T04:54:30;3.83;;;3.28;;
9986;SDS011;5033;46.310;11.214;2024-03-02T04:56:58;3.35;;;3.15;;
9986;SDS011;5033;46.310;11.214;2024-03-02T04:59:25;3.70;;;3.38;;
9986;SDS011;5033;46.310;11.214;2024-03-02T05:01:52;2.90;;;2.70;;
9986;SDS011;5033;46.310;11.214;2024-03-02T05:04:19;3.00;;;2.80;;
9986;SDS011;5033;46.310;11.214;2024-03-02T05:06:46;3.10;;;2.90;;
9986;SDS011;5033;46.310;11.214;2024-03-02T05:09:17;2.90;;;2.70;;
9986;SDS011;5033;46.310;11.214;2024-03-02T05:11:44;3.22;;;3.03;;
9986;SDS011;5033;46.310;11.214;2024-03-02T05:14:42;3.20;;;3.00;;
9986;SDS011;5033;46.310;11.214;2024-03-02T05:17:09;3.10;;;2.90;;
9986;SDS011;5033;46.310;11.214;2024-03-02T05:19:36;3.58;;;3.28;;
9986;SDS011;5033;46.310;11.214;2024-03-02T05:22:03;2.47;;;2.38;;
9986;SDS011;5033;46.310;11.214;2024-03-02T05:24:30;3.10;;;2.90;;
9986;SDS011;5033;46.310;11.214;2024-03-02T05:26:57;2.75;;;2.63;;
9986;SDS011;5033;46.310;11.214;2024-03-02T05:29:24;3.00;;;2.70;;
9986;SDS011;5033;46.310;11.214;2024-03-02T05:31:53;3.25;;;3.00;;
9986;SDS011;5033;46.310;11.214;2024-03-02T05:34:20;3.00;;;2.80;;
9986;SDS011;5033;46.310;11.214;2024-03-02T05:36:47;3.00;;;2.80;;
9986;SDS011;5033;46.310;11.214;2024-03-02T05:39:13;2.42;;;2.22;;
9986;SDS011;5033;46.310;11.214;2024-03-02T05:41:40;2.33;;;2.20;;
9986;SDS011;5033;46.310;11.214;2024-03-02T05:44:08;2.60;;;2.40;;
9986;SDS011;5033;46.310;11.214;2024-03-02T05:46:34;2.97;;;2.78;;
9986;SDS011;5033;46.310;11.214;2024-03-02T05:49:03;2.63;;;2.50;;
9986;SDS011;5033;46.310;11.214;2024-03-02T05:51:30;2.28;;;2.17;;
9986;SDS011;5033;46.310;11.214;2024-03-02T05:53:56;2.80;;;2.60;;
9986;SDS011;5033;46.310;11.214;2024-03-02T05:56:23;2.60;;;2.50;;
9986;SDS011;5033;46.310;11.214;2024-03-02T05:58:50;2.95;;;2.75;;
9986;SDS011;5033;46.310;11.214;2024-03-02T06:01:32;3.40;;;3.10;;
9986;SDS011;5033;46.310;11.214;2024-03-02T06:04:00;3.38;;;3.00;;
9986;SDS011;5033;46.310;11.214;2024-03-02T06:06:28;3.22;;;3.03;;
9986;SDS011;5033;46.310;11.214;2024-03-02T06:08:55;3.30;;;3.10;;
9986;SDS011;5033;46.310;11.214;2024-03-02T06:11:22;3.50;;;3.10;;
9986;SDS011;5033;46.310;11.214;2024-03-02T06:13:49;3.50;;;3.30;;
9986;SDS011;5033;46.310;11.214;2024-03-02T06:16:16;4.05;;;3.75;;
9986;SDS011;5033;46.310;11.214;2024-03-02T06:18:43;3.25;;;3.05;;
9986;SDS011;5033;46.310;11.214;2024-03-02T06:21:10;3.88;;;3.58;;
9986;SDS011;5033;46.310;11.214;2024-03-02T06:23:38;3.10;;;2.90;;
9986;SDS011;5033;46.310;11.214;2024-03-02T06:26:05;2.95;;;2.75;;
9986;SDS011;5033;46.310;11.214;2024-03-02T06:28:32;2.90;;;2.70;;
9986;SDS011;5033;46.310;11.214;2024-03-02T06:30:59;2.88;;;2.67;;
9986;SDS011;5033;46.310;11.214;2024-03-02T06:33:28;3.17;;;2.95;;
9986;SDS011;5033;46.310;11.214;2024-03-02T06:35:55;2.83;;;2.63;;
9986;SDS011;5033;46.310;11.214;2024-03-02T06:38:22;3.80;;;3.50;;
9986;SDS011;5033;46.310;11.214;2024-03-02T06:40:50;3.97;;;3.67;;
9986;SDS011;5033;46.310;11.214;2024-03-02T06:43:17;3.53;;;3.33;;
9986;SDS011;5033;46.310;11.214;2024-03-02T06:45:48;3.63;;;3.33;;
9986;SDS011;5033;46.310;11.214;2024-03-02T06:48:15;3.88;;;3.50;;
9986;SDS011;5033;46.310;11.214;2024-03-02T06:50:45;4.55;;;4.20;;
9986;SDS011;5033;46.310;11.214;2024-03-02T06:53:12;4.75;;;4.25;;
9986;SDS011;5033;46.310;11.214;2024-03-02T06:55:42;4.38;;;3.80;;
9986;SDS011;5033;46.310;11.214;2024-03-02T06:58:11;6.30;;;4.97;;
9986;SDS011;5033;46.310;11.214;2024-03-02T07:00:40;4.13;;;3.83;;
9986;SDS011;5033;46.310;11.214;2024-03-02T07:03:07;4.40;;;4.10;;
9986;SDS011;5033;46.310;11.214;2024-03-02T07:05:34;4.68;;;4.22;;
9986;SDS011;5033;46.310;11.214;2024-03-02T07:08:01;6.68;;;4.60;;
9986;SDS011;5033;46.310;11.214;2024-03-02T07:10:30;5.18;;;4.68;;
9986;SDS011;5033;46.310;11.214;2024-03-02T07:12:57;6.40;;;5.90;;
9986;SDS011;5033;46.310;11.214;2024-03-02T07:15:25;6.43;;;5.78;;
9986;SDS011;5033;46.310;11.214;2024-03-02T07:18:10;8.45;;;6.95;;
9986;SDS011;5033;46.310;11.214;2024-03-02T07:20:37;7.72;;;6.93;;
9986;SDS011;5033;46.310;11.214;2024-03-02T07:23:04;9.43;;;7.82;;
9986;SDS011;5033;46.310;11.214;2024-03-02T07:25:32;8.00;;;7.15;;
9986;SDS011;5033;46.310;11.214;2024-03-02T07:27:59;7.53;;;6.60;;
9986;SDS011;5033;46.310;11.214;2024-03-02T07:30:27;6.88;;;6.25;;
9986;SDS011;5033;46.310;11.214;2024-03-02T07:32:54;7.65;;;6.50;;
9986;SDS011;5033;46.310;11.214;2024-03-02T07:35:21;6.72;;;6.03;;
9986;SDS011;5033;46.310;11.214;2024-03-02T07:37:51;6.70;;;6.03;;
9986;SDS011;5033;46.310;11.214;2024-03-02T07:40:18;10.82;;;6.82;;
9986;SDS011;5033;46.310;11.214;2024-03-02T07:42:46;6.22;;;5.72;;
9986;SDS011;5033;46.310;11.214;2024-03-02T07:45:13;5.88;;;5.28;;
9986;SDS011;5033;46.310;11.214;2024-03-02T07:47:41;5.82;;;5.28;;
9986;SDS011;5033;46.310;11.214;2024-03-02T07:50:08;4.97;;;4.50;;
9986;SDS011;5033;46.310;11.214;2024-03-02T07:52:35;5.82;;;5.25;;
9986;SDS011;5033;46.310;11.214;2024-03-02T07:55:03;5.47;;;5.03;;
9986;SDS011;5033;46.310;11.214;2024-03-02T07:57:30;5.80;;;5.15;;
9986;SDS011;5033;46.310;11.214;2024-03-02T07:59:58;6.80;;;4.57;;
9986;SDS011;5033;46.310;11.214;2024-03-02T08:02:25;5.97;;;5.38;;
9986;SDS011;5033;46.310;11.214;2024-03-02T08:04:54;5.07;;;4.55;;
9986;SDS011;5033;46.310;11.214;2024-03-02T08:07:21;5.85;;;5.28;;
9986;SDS011;5033;46.310;11.214;2024-03-02T08:09:47;4.90;;;4.50;;
9986;SDS011;5033;46.310;11.214;2024-03-02T08:12:14;6.13;;;5.47;;
9986;SDS011;5033;46.310;11.214;2024-03-02T08:14:42;7.18;;;6.47;;
9986;SDS011;5033;46.310;11.214;2024-03-02T08:17:08;6.03;;;5.53;;
9986;SDS011;5033;46.310;11.214;2024-03-02T08:19:36;5.85;;;5.32;;
9986;SDS011;5033;46.310;11.214;2024-03-02T08:22:05;6.90;;;5.35;;
9986;SDS011;5033;46.310;11.214;2024-03-02T08:24:32;6.57;;;5.97;;
9986;SDS011;5033;46.310;11.214;2024-03-02T08:26:59;5.55;;;5.05;;
9986;SDS011;5033;46.310;11.214;2024-03-02T08:29:26;6.07;;;4.70;;
9986;SDS011;5033;46.310;11.214;2024-03-02T08:31:54;6.32;;;5.72;;
9986;SDS011;5033;46.310;11.214;2024-03-02T08:34:21;5.85;;;5.28;;
9986;SDS011;5033;46.310;11.214;2024-03-02T08:36:47;6.28;;;5.78;;
9986;SDS011;5033;46.310;11.214;2024-03-02T08:39:16;5.55;;;5.10;;
9986;SDS011;5033;46.310;11.214;2024-03-02T08:41:44;5.90;;;5.40;;
9986;SDS011;5033;46.310;11.214;2024-03-02T08:44:12;5.57;;;5.15;;
9986;SDS011;5033;46.310;11.214;2024-03-02T08:46:40;6.63;;;6.00;;
9986;SDS011;5033;46.310;11.214;2024-03-02T08:49:07;4.47;;;4.18;;
9986;SDS011;5033;46.310;11.214;2024-03-02T08:51:34;5.45;;;4.95;;
9986;SDS011;5033;46.310;11.214;2024-03-02T08:54:01;5.63;;;4.80;;
9986;SDS011;5033;46.310;11.214;2024-03-02T08:56:30;5.20;;;4.70;;
9986;SDS011;5033;46.310;11.214;2024-03-02T08:58:57;5.00;;;4.57;;
9986;SDS011;5033;46.310;11.214;2024-03-02T09:01:24;5.40;;;4.90;;
9986;SDS011;5033;46.310;11.214;2024-03-02T09:03:51;4.70;;;4.30;;
9986;SDS011;5033;46.310;11.214;2024-03-02T09:06:18;5.40;;;4.90;;
9986;SDS011;5033;46.310;11.214;2024-03-02T09:08:46;5.70;;;5.20;;
9986;SDS011;5033;46.310;11.214;2024-03-02T09:11:14;5.18;;;4.75;;
9986;SDS011;5033;46.310;11.214;2024-03-02T09:13:43;4.25;;;3.85;;
9986;SDS011;5033;46.310;11.214;2024-03-02T09:16:10;4.80;;;4.35;;
9986;SDS011;5033;46.310;11.214;2024-03-02T09:18:37;5.68;;;4.43;;
9986;SDS011;5033;46.310;11.214;2024-03-02T09:21:04;4.50;;;4.10;;
9986;SDS011;5033;46.310;11.214;2024-03-02T09:23:31;5.05;;;4.22;;
9986;SDS011;5033;46.310;11.214;2024-03-02T09:25:59;4.32;;;3.92;;
9986;SDS011;5033;46.310;11.214;2024-03-02T09:28:26;7.72;;;4.75;;
9986;SDS011;5033;46.310;11.214;2024-03-02T09:30:55;4.75;;;4.28;;
9986;SDS011;5033;46.310;11.214;2024-03-02T09:33:21;4.50;;;4.10;;
9986;SDS011;5033;46.310;11.214;2024-03-02T09:35:48;4.15;;;3.80;;
9986;SDS011;5033;46.310;11.214;2024-03-02T09:38:15;4.88;;;4.20;;
9986;SDS011;5033;46.310;11.214;2024-03-02T09:40:42;5.30;;;4.70;;
9986;SDS011;5033;46.310;11.214;2024-03-02T09:43:09;4.47;;;3.70;;
9986;SDS011;5033;46.310;11.214;2024-03-02T09:45:36;4.65;;;4.25;;
9986;SDS011;5033;46.310;11.214;2024-03-02T09:48:06;5.43;;;4.43;;
9986;SDS011;5033;46.310;11.214;2024-03-02T09:50:33;5.00;;;4.20;;
9986;SDS011;5033;46.310;11.214;2024-03-02T09:53:00;4.50;;;4.10;;
9986;SDS011;5033;46.310;11.214;2024-03-02T09:55:28;4.75;;;3.83;;
9986;SDS011;5033;46.310;11.214;2024-03-02T09:57:55;4.68;;;4.32;;
9986;SDS011;5033;46.310;11.214;2024-03-02T10:00:22;4.38;;;3.97;;
9986;SDS011;5033;46.310;11.214;2024-03-02T10:02:50;4.65;;;4.10;;
9986;SDS011;5033;46.310;11.214;2024-03-02T10:05:25;4.07;;;3.50;;
9986;SDS011;5033;46.310;11.214;2024-03-02T10:07:59;4.57;;;3.63;;
9986;SDS011;5033;46.310;11.214;2024-03-02T10:10:37;7.80;;;4.50;;
9986;SDS011;5033;46.310;11.214;2024-03-02T10:13:07;4.45;;;4.05;;
9986;SDS011;5033;46.310;11.214;2024-03-02T10:15:35;4.63;;;4.07;;
9986;SDS011;5033;46.310;11.214;2024-03-02T10:18:03;4.72;;;4.13;;
9986;SDS011;5033;46.310;11.214;2024-03-02T10:20:31;5.57;;;4.97;;
9986;SDS011;5033;46.310;11.214;2024-03-02T10:25:41;4.90;;;4.18;;
9986;SDS011;5033;46.310;11.214;2024-03-02T10:28:10;5.13;;;4.38;;
9986;SDS011;5033;46.310;11.214;2024-03-02T10:30:37;6.70;;;4.63;;
9986;SDS011;5033;46.310;11.214;2024-03-02T10:33:05;5.40;;;4.78;;
9986;SDS011;5033;46.310;11.214;2024-03-02T10:35:34;5.22;;;4.35;;
9986;SDS011;5033;46.310;11.214;2024-03-02T10:38:01;6.63;;;5.07;;
9986;SDS011;5033;46.310;11.214;2024-03-02T10:40:31;4.57;;;4.18;;
9986;SDS011;5033;46.310;11.214;2024-03-02T10:42:58;6.90;;;5.03;;
9986;SDS011;5033;46.310;11.214;2024-03-02T10:45:27;4.97;;;4.25;;
9986;SDS011;5033;46.310;11.214;2024-03-02T10:47:54;5.43;;;3.60;;
9986;SDS011;5033;46.310;11.214;2024-03-02T10:50:22;4.90;;;4.25;;
9986;SDS011;5033;46.310;11.214;2024-03-02T10:52:50;5.18;;;4.38;;
9986;SDS011;5033;46.310;11.214;2024-03-02T10:55:17;6.18;;;4.18;;
9986;SDS011;5033;46.310;11.214;2024-03-02T10:57:47;3.95;;;3.55;;
9986;SDS011;5033;46.310;11.214;2024-03-02T11:00:20;4.20;;;3.30;;
9986;SDS011;5033;46.310;11.214;2024-03-02T11:02:51;3.92;;;3.53;;
9986;SDS011;5033;46.310;11.214;2024-03-02T11:05:23;4.63;;;3.63;;
9986;SDS011;5033;46.310;11.214;2024-03-02T11:07:56;4.53;;;3.97;;
9986;SDS011;5033;46.310;11.214;2024-03-02T11:10:26;4.38;;;3.60;;
9986;SDS011;5033;46.310;11.214;2024-03-02T11:12:56;6.25;;;4.18;;
9986;SDS011;5033;46.310;11.214;2024-03-02T11:15:28;4.43;;;4.03;;
9986;SDS011;5033;46.310;11.214;2024-03-02T11:17:55;3.72;;;2.92;;
9986;SDS011;5033;46.310;11.214;2024-03-02T11:20:24;4.10;;;3.70;;
9986;SDS011;5033;46.310;11.214;2024-03-02T11:22:51;3.78;;;3.47;;
9986;SDS011;5033;46.310;11.214;2024-03-02T11:25:26;3.40;;;3.10;;
9986;SDS011;5033;46.310;11.214;2024-03-02T11:27:59;3.15;;;2.70;;
9986;SDS011;5033;46.310;11.214;2024-03-02T11:33:22;4.57;;;2.90;;
9986;SDS011;5033;46.310;11.214;2024-03-02T11:35:52;4.22;;;2.70;;
9986;SDS011;5033;46.310;11.214;2024-03-02T11:38:20;4.22;;;3.15;;
9986;SDS011;5033;46.310;11.214;2024-03-02T11:40:48;7.20;;;3.38;;
9986;SDS011;5033;46.310;11.214;2024-03-02T11:43:15;6.40;;;3.58;;
9986;SDS011;5033;46.310;11.214;2024-03-02T11:45:42;6.50;;;3.50;;
9986;SDS011;5033;46.310;11.214;2024-03-02T11:48:10;3.58;;;2.90;;
9986;SDS011;5033;46.310;11.214;2024-03-02T11:50:40;4.97;;;3.00;;
9986;SDS011;5033;46.310;11.214;2024-03-02T11:53:09;3.70;;;3.30;;
9986;SDS011;5033;46.310;11.214;2024-03-02T11:55:38;3.20;;;2.90;;
9986;SDS011;5033;46.310;11.214;2024-03-02T11:58:07;3.78;;;3.22;;
9986;SDS011;5033;46.310;11.214;2024-03-02T12:00:35;3.78;;;3.42;;
9986;SDS011;5033;46.310;11.214;2024-03-02T12:03:02;4.85;;;3.53;;
9986;SDS011;5033;46.310;11.214;2024-03-02T12:05:32;4.57;;;3.72;;
9986;SDS011;5033;46.310;11.214;2024-03-02T12:08:00;4.10;;;3.13;;
9986;SDS011;5033;46.310;11.214;2024-03-02T12:10:29;3.55;;;3.13;;
9986;SDS011;5033;46.310;11.214;2024-03-02T12:12:57;3.83;;;3.33;;
9986;SDS011;5033;46.310;11.214;2024-03-02T12:15:26;4.05;;;3.63;;
9986;SDS011;5033;46.310;11.214;2024-03-02T12:17:55;5.13;;;3.63;;
9986;SDS011;5033;46.310;11.214;2024-03-02T12:20:23;3.55;;;3.25;;
9986;SDS011;5033;46.310;11.214;2024-03-02T12:22:51;3.03;;;2.83;;
9986;SDS011;5033;46.310;11.214;2024-03-02T12:25:18;5.25;;;3.00;;
9986;SDS011;5033;46.310;11.214;2024-03-02T12:27:46;3.25;;;2.95;;
9986;SDS011;5033;46.310;11.214;2024-03-02T12:30:16;3.38;;;3.08;;
9986;SDS011;5033;46.310;11.214;2024-03-02T12:32:45;4.90;;;2.65;;
9986;SDS011;5033;46.310;11.214;2024-03-02T12:35:12;3.78;;;2.78;;
9986;SDS011;5033;46.310;11.214;2024-03-02T12:37:43;3.97;;;2.65;;
9986;SDS011;5033;46.310;11.214;2024-03-02T12:40:11;3.65;;;2.35;;
9986;SDS011;5033;46.310;11.214;2024-03-02T12:42:39;4.55;;;2.53;;
9986;SDS011;5033;46.310;11.214;2024-03-02T12:45:07;4.20;;;2.22;;
9986;SDS011;5033;46.310;11.214;2024-03-02T12:47:34;3.10;;;1.95;;
9986;SDS011;5033;46.310;11.214;2024-03-02T12:50:03;3.22;;;2.30;;
9986;SDS011;5033;46.310;11.214;2024-03-02T12:52:31;2.80;;;2.42;;
9986;SDS011;5033;46.310;11.214;2024-03-02T12:54:59;2.85;;;2.00;;
9986;SDS011;5033;46.310;11.214;2024-03-02T12:57:28;4.60;;;2.08;;
9986;SDS011;5033;46.310;11.214;2024-03-02T12:59:59;3.60;;;1.73;;
9986;SDS011;5033;46.310;11.214;2024-03-02T13:02:30;2.60;;;2.05;;
9986;SDS011;5033;46.310;11.214;2024-03-02T13:04:58;2.28;;;1.60;;
9986;SDS011;5033;46.310;11.214;2024-03-02T13:07:26;6.28;;;1.80;;
9986;SDS011;5033;46.310;11.214;2024-03-02T13:09:53;2.17;;;1.80;;
9986;SDS011;5033;46.310;11.214;2024-03-02T13:12:21;2.95;;;1.95;;
9986;SDS011;5033;46.310;11.214;2024-03-02T13:14:49;2.00;;;1.77;;
9986;SDS011;5033;46.310;11.214;2024-03-02T13:17:17;3.75;;;1.83;;
9986;SDS011;5033;46.310;11.214;2024-03-02T13:19:51;1.90;;;1.77;;
9986;SDS011;5033;46.310;11.214;2024-03-02T13:22:19;2.88;;;1.67;;
9986;SDS011;5033;46.310;11.214;2024-03-02T13:24:47;1.92;;;1.83;;
9986;SDS011;5033;46.310;11.214;2024-03-02T13:27:14;2.60;;;2.05;;
9986;SDS011;5033;46.310;11.214;2024-03-02T13:29:44;5.03;;;1.92;;
9986;SDS011;5033;46.310;11.214;2024-03-02T13:32:11;1.95;;;1.80;;
9986;SDS011;5033;46.310;11.214;2024-03-02T13:34:38;3.95;;;1.75;;
9986;SDS011;5033;46.310;11.214;2024-03-02T13:37:05;1.77;;;1.48;;
9986;SDS011;5033;46.310;11.214;2024-03-02T13:39:32;3.60;;;1.67;;
9986;SDS011;5033;46.310;11.214;2024-03-02T13:42:06;1.42;;;1.30;;
9986;SDS011;5033;46.310;11.214;2024-03-02T13:44:34;1.83;;;1.73;;
9986;SDS011;5033;46.310;11.214;2024-03-02T13:47:02;1.30;;;1.30;;
9986;SDS011;5033;46.310;11.214;2024-03-02T13:49:29;2.30;;;1.67;;
9986;SDS011;5033;46.310;11.214;2024-03-02T13:52:01;2.47;;;1.80;;
9986;SDS011;5033;46.310;11.214;2024-03-02T13:54:36;4.25;;;1.90;;
9986;SDS011;5033;46.310;11.214;2024-03-02T13:57:05;2.67;;;1.75;;
9986;SDS011;5033;46.310;11.214;2024-03-02T13:59:33;1.70;;;1.60;;
9986;SDS011;5033;46.310;11.214;2024-03-02T14:02:01;1.92;;;1.75;;
9986;SDS011;5033;46.310;11.214;2024-03-02T14:04:29;2.08;;;1.80;;
9986;SDS011;5033;46.310;11.214;2024-03-02T14:06:56;2.33;;;1.80;;
9986;SDS011;5033;46.310;11.214;2024-03-02T14:09:23;2.15;;;1.33;;
9986;SDS011;5033;46.310;11.214;2024-03-02T14:11:50;2.03;;;1.55;;
9986;SDS011;5033;46.310;11.214;2024-03-02T14:14:19;3.63;;;1.67;;
9986;SDS011;5033;46.310;11.214;2024-03-02T14:16:46;2.15;;;1.70;;
9986;SDS011;5033;46.310;11.214;2024-03-02T14:19:13;2.50;;;1.30;;
9986;SDS011;5033;46.310;11.214;2024-03-02T14:21:40;3.42;;;1.60;;
9986;SDS011;5033;46.310;11.214;2024-03-02T14:24:07;1.65;;;1.50;;
9986;SDS011;5033;46.310;11.214;2024-03-02T14:26:34;1.65;;;1.50;;
9986;SDS011;5033;46.310;11.214;2024-03-02T14:29:02;1.95;;;1.65;;
9986;SDS011;5033;46.310;11.214;2024-03-02T14:31:30;2.10;;;1.80;;
9986;SDS011;5033;46.310;11.214;2024-03-02T14:33:58;1.75;;;1.48;;
9986;SDS011;5033;46.310;11.214;2024-03-02T14:36:25;3.00;;;1.92;;
9986;SDS011;5033;46.310;11.214;2024-03-02T14:38:52;2.03;;;1.63;;
9986;SDS011;5033;46.310;11.214;2024-03-02T14:41:19;1.48;;;1.38;;
9986;SDS011;5033;46.310;11.214;2024-03-02T14:43:46;2.20;;;1.65;;
9986;SDS011;5033;46.310;11.214;2024-03-02T14:46:14;1.63;;;1.52;;
9986;SDS011;5033;46.310;11.214;2024-03-02T14:48:44;1.63;;;1.52;;
9986;SDS011;5033;46.310;11.214;2024-03-02T14:51:12;1.70;;;1.60;;
9986;SDS011;5033;46.310;11.214;2024-03-02T14:53:39;1.98;;;1.83;;
9986;SDS011;5033;46.310;11.214;2024-03-02T14:56:07;1.63;;;1.52;;
9986;SDS011;5033;46.310;11.214;2024-03-02T14:58:34;1.75;;;1.60;;
9986;SDS011;5033;46.310;11.214;2024-03-02T15:01:02;2.33;;;1.63;;
9986;SDS011;5033;46.310;11.214;2024-03-02T15:03:30;1.60;;;1.50;;
9986;SDS011;5033;46.310;11.214;2024-03-02T15:05:58;2.03;;;1.80;;
9986;SDS011;5033;46.310;11.214;2024-03-02T15:08:25;2.70;;;1.70;;
9986;SDS011;5033;46.310;11.214;2024-03-02T15:10:52;1.50;;;1.40;;
9986;SDS011;5033;46.310;11.214;2024-03-02T15:13:20;3.03;;;1.80;;